createdAt,value
2018-04-17T00:00:12.630Z,99869.97
2018-04-17T00:02:52.624Z,99876.12
2018-04-17T00:05:30.703Z,99885.84
2018-04-17T00:08:08.404Z,99875.36
2018-04-17T00:10:47.646Z,99880.55
2018-04-17T00:13:26.401Z,99878.78
2018-04-17T00:16:04.256Z,99874.56
2018-04-17T00:18:43.236Z,99872.30
2018-04-17T00:21:22.074Z,99872.80
2018-04-17T00:23:59.732Z,99879.30
2018-04-17T00:26:38.062Z,99871.86
2018-04-17T00:29:17.991Z,99875.42
2018-04-17T00:31:56.076Z,99873.58
2018-04-17T00:34:35.428Z,99863.40
2018-04-17T00:37:13.254Z,99870.22
2018-04-17T00:39:51.818Z,99872.83
2018-04-17T00:42:30.891Z,99872.37
2018-04-17T00:45:09.913Z,99880.26
2018-04-17T00:47:47.932Z,99888.17
2018-04-17T00:50:27.329Z,99886.98
2018-04-17T00:53:14.197Z,99897.75
2018-04-17T00:55:52.503Z,99895.59
2018-04-17T00:58:31.535Z,99896.25
2018-04-17T01:01:10.097Z,99894.69
2018-04-17T01:03:48.161Z,99898.08
2018-04-17T01:06:26.239Z,99904.39
2018-04-17T01:09:08.523Z,99907.98
2018-04-17T01:11:46.554Z,99913.22
2018-04-17T01:14:24.905Z,99905.59
2018-04-17T01:17:02.737Z,99907.51
2018-04-17T01:19:40.410Z,99915.14
2018-04-17T01:22:19.713Z,99920.50
2018-04-17T01:24:57.531Z,99921.75
2018-04-17T01:27:36.559Z,99922.48
2018-04-17T01:30:14.641Z,99928.65
2018-04-17T01:32:53.388Z,99931.11
2018-04-17T01:35:32.080Z,99939.09
2018-04-17T01:38:10.361Z,99945.09
2018-04-17T01:40:48.948Z,99949.03
2018-04-17T01:43:26.788Z,99945.48
2018-04-17T01:46:05.674Z,99946.11
2018-04-17T01:48:43.681Z,99949.50
2018-04-17T01:51:21.624Z,99959.34
2018-04-17T01:54:01.680Z,99958.59
2018-04-17T01:56:39.575Z,99961.80
2018-04-17T01:59:17.768Z,99966.47
2018-04-17T02:01:57.263Z,99970.52
2018-04-17T02:04:35.359Z,99978.80
2018-04-17T02:07:14.542Z,99979.70
2018-04-17T02:09:54.022Z,99980.27
2018-04-17T02:12:33.108Z,99983.33
2018-04-17T02:15:12.079Z,99991.66
2018-04-17T02:17:50.860Z,99992.43
2018-04-17T02:20:30.142Z,99997.16
2018-04-17T02:23:08.622Z,99994.07
2018-04-17T02:25:49.113Z,99995.20
2018-04-17T02:28:28.145Z,99997.53
2018-04-17T02:31:06.361Z,99993.27
2018-04-17T02:33:46.485Z,100001.46
2018-04-17T02:36:25.176Z,100011.89
2018-04-17T02:39:03.181Z,100004.66
2018-04-17T02:41:41.215Z,100014.32
2018-04-17T02:44:19.998Z,100014.09
2018-04-17T02:46:58.945Z,100017.80
2018-04-17T02:49:36.968Z,100021.62
2018-04-17T02:52:15.542Z,100024.77
2018-04-17T02:54:54.629Z,100029.29
2018-04-17T02:57:33.009Z,100035.53
2018-04-17T03:00:10.805Z,100038.56
2018-04-17T03:02:51.664Z,100037.41
2018-04-17T03:05:29.942Z,100033.86
2018-04-17T03:08:07.998Z,100046.74
2018-04-17T03:10:47.173Z,100058.75
2018-04-17T03:13:25.441Z,100059.81
2018-04-17T03:16:04.465Z,100063.20
2018-04-17T03:18:42.779Z,100061.37
2018-04-17T03:21:20.876Z,100062.89
2018-04-17T03:23:59.713Z,100067.35
2018-04-17T03:26:38.087Z,100068.99
2018-04-17T03:29:17.666Z,100076.92
2018-04-17T03:31:55.800Z,100082.70
2018-04-17T03:34:36.665Z,100079.55
2018-04-17T03:37:14.547Z,100075.80
2018-04-17T03:39:53.695Z,100077.55
2018-04-17T03:42:34.559Z,100082.15
2018-04-17T03:45:13.459Z,100083.66
2018-04-17T03:47:52.419Z,100090.37
2018-04-17T03:50:30.994Z,100100.75
2018-04-17T03:53:08.883Z,100104.98
2018-04-17T03:55:47.207Z,100112.67
2018-04-17T03:58:25.409Z,100111.71
2018-04-17T04:01:03.691Z,100115.34
2018-04-17T04:03:41.743Z,100112.34
2018-04-17T04:06:21.655Z,100122.84
2018-04-17T04:08:59.980Z,100121.70
2018-04-17T04:11:42.816Z,100117.22
2018-04-17T04:14:21.566Z,100123.89
2018-04-17T04:18:18.275Z,100127.63
2018-04-17T04:22:15.320Z,100136.53
2018-04-17T04:25:16.969Z,100136.99
2018-04-17T04:27:56.762Z,100137.85
2018-04-17T04:30:44.570Z,100144.94
2018-04-17T04:33:22.711Z,100150.05
2018-04-17T04:36:03.257Z,100153.44
2018-04-17T04:38:43.597Z,100159.16
2018-04-17T04:41:23.708Z,100168.56
2018-04-17T04:44:02.564Z,100163.70
2018-04-17T04:46:46.211Z,100173.39
2018-04-17T04:49:24.955Z,100171.92
2018-04-17T04:52:03.945Z,100175.59
2018-04-17T04:54:46.606Z,100177.20
2018-04-17T04:57:24.518Z,100180.72
2018-04-17T05:00:05.148Z,100185.82
2018-04-17T05:02:46.104Z,100184.86
2018-04-17T05:05:25.106Z,100186.50
2018-04-17T05:08:07.207Z,100195.56
2018-04-17T05:10:45.134Z,100207.77
2018-04-17T05:13:25.983Z,100209.26
2018-04-17T05:16:06.265Z,100203.97
2018-04-17T05:18:43.997Z,100213.98
2018-04-17T05:21:23.260Z,100224.03
2018-04-17T05:24:01.184Z,100219.31
2018-04-17T05:26:39.450Z,100228.35
2018-04-17T05:29:17.167Z,100226.56
2018-04-17T05:31:54.934Z,100236.62
2018-04-17T05:34:32.574Z,100236.33
2018-04-17T05:37:12.510Z,100240.70
2018-04-17T05:39:51.445Z,100245.20
2018-04-17T05:42:29.931Z,100249.34
2018-04-17T05:45:09.964Z,100258.09
2018-04-17T05:47:49.398Z,100258.33
2018-04-17T05:50:28.531Z,100261.69
2018-04-17T05:53:09.409Z,100269.67
2018-04-17T05:55:47.094Z,100276.11
2018-04-17T05:58:25.023Z,100281.11
2018-04-17T06:01:04.124Z,100267.59
2018-04-17T06:03:41.800Z,100280.21
2018-04-17T06:06:19.423Z,100288.92
2018-04-17T06:08:59.055Z,100287.87
2018-04-17T06:11:36.728Z,100286.25
2018-04-17T06:14:14.221Z,100288.45
2018-04-17T06:16:54.718Z,100289.59
2018-04-17T06:19:34.991Z,100306.16
2018-04-17T06:22:14.057Z,100300.70
2018-04-17T06:24:55.500Z,100305.58
2018-04-17T06:27:36.629Z,100312.79
2018-04-17T06:30:16.755Z,100316.17
2018-04-17T06:32:55.228Z,100318.02
2018-04-17T06:35:37.834Z,100322.14
2018-04-17T06:38:16.105Z,100329.19
2018-04-17T06:41:00.797Z,100338.02
2018-04-17T06:43:39.402Z,100347.93
2018-04-17T06:46:17.102Z,100349.16
2018-04-17T06:48:57.485Z,100353.02
2018-04-17T06:51:36.615Z,100358.02
2018-04-17T06:54:15.895Z,100355.34
2018-04-17T06:56:56.455Z,100363.86
2018-04-17T06:59:35.723Z,100361.94
2018-04-17T07:02:14.713Z,100369.55
2018-04-17T07:04:54.101Z,100368.62
2018-04-17T07:07:31.792Z,100369.44
2018-04-17T07:13:00.330Z,100377.98
2018-04-17T07:15:40.260Z,100385.13
2018-04-17T07:18:22.224Z,100377.55
2018-04-17T07:21:02.045Z,100391.51
2018-04-17T07:23:43.945Z,100394.89
2018-04-17T07:26:23.454Z,100403.39
2018-04-17T07:29:04.696Z,100402.73
2018-04-17T07:31:47.686Z,100406.52
2018-04-17T07:34:25.516Z,100407.23
2018-04-17T07:37:05.198Z,100410.14
2018-04-17T07:39:43.563Z,100416.67
2018-04-17T07:42:23.022Z,100420.16
2018-04-17T07:45:03.360Z,100427.11
2018-04-17T07:47:50.283Z,100434.83
2018-04-17T07:50:29.062Z,100440.89
2018-04-17T07:53:07.918Z,100444.16
2018-04-17T07:55:47.827Z,100442.91
2018-04-17T07:58:25.670Z,100438.45
2018-04-17T08:01:05.493Z,100439.30
2018-04-17T08:03:48.763Z,100445.75
2018-04-17T08:06:26.215Z,100445.33
2018-04-17T08:09:06.217Z,100455.26
2018-04-17T08:11:46.916Z,100453.17
2018-04-17T08:14:26.031Z,100462.39
2018-04-17T08:17:07.196Z,100459.39
2018-04-17T08:19:48.058Z,100451.87
2018-04-17T08:22:27.264Z,100454.53
2018-04-17T08:25:10.237Z,100467.97
2018-04-17T08:27:51.042Z,100472.64
2018-04-17T08:30:29.068Z,100470.30
2018-04-17T08:33:09.879Z,100467.24
2018-04-17T08:35:50.365Z,100469.48
2018-04-17T08:38:31.326Z,100466.63
2018-04-17T08:41:12.050Z,100470.66
2018-04-17T08:43:50.689Z,100467.08
2018-04-17T08:46:33.944Z,100467.76
2018-04-17T08:49:11.868Z,100469.58
2018-04-17T08:51:51.421Z,100465.55
2018-04-17T08:54:32.742Z,100473.97
2018-04-17T08:57:12.673Z,100468.28
2018-04-17T08:59:53.564Z,100481.05
2018-04-17T09:02:32.939Z,100483.59
2018-04-17T09:05:13.060Z,100480.87
2018-04-17T09:07:58.108Z,100481.60
2018-04-17T09:10:35.806Z,100477.48
2018-04-17T09:13:18.220Z,100479.27
2018-04-17T09:15:57.005Z,100481.92
2018-04-17T09:21:22.592Z,100475.39
2018-04-17T09:24:00.363Z,100478.45
2018-04-17T09:26:41.006Z,100483.45
2018-04-17T09:29:18.955Z,100486.65
2018-04-17T09:32:02.546Z,100486.48
2018-04-17T09:34:41.480Z,100487.16
2018-04-17T09:37:19.518Z,100489.13
2018-04-17T09:40:00.767Z,100483.98
2018-04-17T09:42:39.177Z,100486.77
2018-04-17T09:45:24.383Z,100489.42
2018-04-17T09:48:03.226Z,100490.16
2018-04-17T09:50:42.966Z,100502.36
2018-04-17T09:53:23.744Z,100498.84
2018-04-17T09:56:01.735Z,100508.66
2018-04-17T09:58:40.624Z,100500.98
2018-04-17T10:01:24.109Z,100501.73
2018-04-17T10:04:05.294Z,100500.88
2018-04-17T10:06:43.554Z,100496.59
2018-04-17T10:09:25.790Z,100507.75
2018-04-17T10:12:04.736Z,100499.83
2018-04-17T10:14:44.366Z,100498.55
2018-04-17T10:17:26.832Z,100499.53
2018-04-17T10:20:05.131Z,100491.72
2018-04-17T10:22:46.135Z,100498.55
2018-04-17T10:25:24.850Z,100496.55
2018-04-17T10:28:09.648Z,100495.28
2018-04-17T10:30:47.397Z,100492.69
2018-04-17T10:33:25.302Z,100493.09
2018-04-17T10:36:08.244Z,100496.18
2018-04-17T10:38:46.000Z,100492.00
2018-04-17T10:41:24.663Z,100493.84
2018-04-17T10:44:09.850Z,100495.65
2018-04-17T10:46:48.545Z,100498.20
2018-04-17T10:49:28.368Z,100485.78
2018-04-17T10:52:09.358Z,100492.80
2018-04-17T10:54:49.153Z,100486.61
2018-04-17T10:57:33.340Z,100480.12
2018-04-17T11:00:11.540Z,100482.73
2018-04-17T11:02:52.667Z,100474.08
2018-04-17T11:05:32.527Z,100480.24
2018-04-17T11:08:10.524Z,100484.03
2018-04-17T11:10:52.755Z,100479.33
2018-04-17T11:13:32.988Z,100481.77
2018-04-17T11:16:11.274Z,100485.33
2018-04-17T11:18:54.108Z,100476.59
2018-04-17T11:21:35.327Z,100477.19
2018-04-17T11:24:16.381Z,100472.64
2018-04-17T11:26:54.419Z,100467.47
2018-04-17T11:29:35.929Z,100471.53
2018-04-17T11:32:15.162Z,100472.57
2018-04-17T11:34:53.147Z,100467.26
2018-04-17T11:37:35.489Z,100471.73
2018-04-17T11:40:14.344Z,100463.63
2018-04-17T11:42:54.780Z,100460.21
2018-04-17T11:45:38.705Z,100464.20
2018-04-17T11:48:20.747Z,100469.42
2018-04-17T11:50:59.032Z,100460.19
2018-04-17T11:53:39.678Z,100466.09
2018-04-17T11:56:17.545Z,100462.25
2018-04-17T11:59:05.084Z,100462.33
2018-04-17T12:01:51.044Z,100463.40
2018-04-17T12:04:37.299Z,100457.08
2018-04-17T12:07:18.352Z,100457.50
2018-04-17T12:09:59.509Z,100454.34
2018-04-17T12:12:39.769Z,100461.31
2018-04-17T12:15:20.562Z,100460.41
2018-04-17T12:17:59.483Z,100463.11
2018-04-17T12:20:41.884Z,100466.16
2018-04-17T12:23:20.548Z,100462.41
2018-04-17T12:26:00.105Z,100457.86
2018-04-17T12:28:42.681Z,100461.59
2018-04-17T12:31:21.927Z,100462.12
2018-04-17T12:34:00.901Z,100457.50
2018-04-17T12:36:44.032Z,100461.38
2018-04-17T12:39:22.590Z,100457.14
2018-04-17T12:42:09.454Z,100458.95
2018-04-17T12:44:59.071Z,100453.59
2018-04-17T12:47:40.527Z,100445.55
2018-04-17T12:50:22.051Z,100449.05
2018-04-17T12:53:09.444Z,100454.59
2018-04-17T12:55:48.275Z,100449.78
2018-04-17T12:58:26.291Z,100449.40
2018-04-17T13:01:08.669Z,100447.26
2018-04-17T13:04:00.996Z,100449.87
2018-04-17T13:06:50.098Z,100448.77
2018-04-17T13:09:28.290Z,100448.34
2018-04-17T13:12:08.436Z,100442.38
2018-04-17T13:14:49.332Z,100445.02
2018-04-17T13:17:28.361Z,100449.77
2018-04-17T13:20:12.752Z,100444.64
2018-04-17T13:22:54.075Z,100453.63
2018-04-17T13:25:47.430Z,100447.13
2018-04-17T13:28:26.967Z,100454.97
2018-04-17T13:31:06.256Z,100449.95
2018-04-17T13:33:54.116Z,100448.72
2018-04-17T13:36:32.342Z,100443.70
2018-04-17T13:39:12.009Z,100444.08
2018-04-17T13:41:56.711Z,100443.52
2018-04-17T13:44:47.696Z,100442.89
2018-04-17T13:47:29.331Z,100434.64
2018-04-17T13:50:11.090Z,100436.72
2018-04-17T13:52:49.910Z,100440.66
2018-04-17T13:55:29.768Z,100437.02
2018-04-17T13:58:17.206Z,100437.19
2018-04-17T14:00:54.927Z,100438.88
2018-04-17T14:03:37.700Z,100437.84
2018-04-17T14:06:16.121Z,100434.47
2018-04-17T14:08:56.401Z,100440.72
2018-04-17T14:11:34.237Z,100445.37
2018-04-17T14:14:13.095Z,100435.42
2018-04-17T14:16:56.643Z,100430.80
2018-04-17T14:19:36.015Z,100430.73
2018-04-17T14:22:14.310Z,100436.64
2018-04-17T14:25:04.512Z,100433.06
2018-04-17T14:27:53.931Z,100437.80
2018-04-17T14:30:35.376Z,100431.75
2018-04-17T14:33:15.378Z,100427.78
2018-04-17T14:35:54.969Z,100434.95
2018-04-17T14:38:35.172Z,100428.37
2018-04-17T15:26:54.123Z,100428.98
2018-04-17T15:29:32.053Z,100421.48
2018-04-17T15:32:16.083Z,100431.69
2018-04-17T15:34:56.359Z,100426.05
2018-04-17T15:37:34.087Z,100421.16
2018-04-17T15:40:16.125Z,100432.68
2018-04-17T15:42:55.914Z,100424.42
2018-04-17T15:45:42.107Z,100424.66
2018-04-17T15:48:23.269Z,100429.30
2018-04-17T15:51:02.796Z,100429.73
2018-04-17T15:53:45.751Z,100427.52
2018-04-17T15:56:23.611Z,100428.36
2018-04-17T15:59:02.978Z,100430.45
2018-04-17T16:01:48.501Z,100424.45
2018-04-17T16:04:26.276Z,100440.13
2018-04-17T16:07:04.550Z,100432.84
2018-04-17T16:09:47.615Z,100437.52
2018-04-17T16:12:27.441Z,100438.48
2018-04-17T16:15:07.393Z,100439.55
2018-04-17T16:17:47.248Z,100439.12
2018-04-17T16:20:26.890Z,100439.91
2018-04-17T16:23:09.291Z,100433.62
2018-04-17T16:25:47.570Z,100434.89
2018-04-17T16:28:26.757Z,100441.02
2018-04-17T16:31:09.731Z,100438.66
2018-04-17T16:33:48.510Z,100438.82
2018-04-17T16:36:27.750Z,100447.42
2018-04-17T16:39:07.106Z,100448.60
2018-04-17T16:41:48.127Z,100450.11
2018-04-17T16:44:28.595Z,100448.19
2018-04-17T16:47:08.793Z,100457.27
2018-04-17T16:49:48.340Z,100456.12
2018-04-17T16:52:30.520Z,100457.85
2018-04-17T16:55:10.759Z,100458.00
2018-04-17T16:57:48.749Z,100467.55
2018-04-17T17:00:28.446Z,100461.79
2018-04-17T17:03:07.448Z,100465.72
2018-04-17T17:05:46.765Z,100468.03
2018-04-17T17:08:28.622Z,100471.47
2018-04-17T17:11:08.612Z,100471.63
2018-04-17T17:13:49.474Z,100475.72
2018-04-17T17:16:30.580Z,100472.83
2018-04-17T17:19:09.882Z,100477.65
2018-04-17T17:21:50.847Z,100476.78
2018-04-17T17:24:30.686Z,100479.33
2018-04-17T17:27:13.239Z,100481.44
2018-04-17T17:29:54.467Z,100486.80
2018-04-17T17:32:35.883Z,100487.03
2018-04-17T17:35:15.652Z,100484.26
2018-04-17T17:37:55.283Z,100483.91
2018-04-17T17:40:38.006Z,100491.53
2018-04-17T17:43:18.005Z,100496.64
2018-04-17T17:45:56.003Z,100502.69
2018-04-17T17:48:38.890Z,100499.94
2018-04-17T17:51:18.850Z,100500.67
2018-04-17T17:53:58.373Z,100507.21
2018-04-17T17:56:40.081Z,100505.03
2018-04-17T17:59:18.097Z,100515.44
2018-04-17T18:01:59.816Z,100518.22
2018-04-17T18:04:38.744Z,100524.78
2018-04-17T18:07:19.076Z,100531.22
2018-04-17T18:10:00.562Z,100537.08
2018-04-17T18:12:39.688Z,100535.28
2018-04-17T18:15:22.212Z,100545.80
2018-04-17T18:18:00.524Z,100548.63
2018-04-17T18:20:40.424Z,100557.78
2018-04-17T18:23:23.585Z,100564.64
2018-04-17T18:26:01.541Z,100565.61
2018-04-17T18:28:42.087Z,100569.73
2018-04-17T18:31:23.258Z,100570.21
2018-04-17T18:34:02.296Z,100571.00
2018-04-17T18:36:43.904Z,100573.80
2018-04-17T18:39:21.970Z,100579.40
2018-04-17T18:42:00.607Z,100581.81
2018-04-17T18:44:43.014Z,100591.95
2018-04-17T18:47:22.682Z,100592.34
2018-04-17T18:50:05.826Z,100597.83
2018-04-17T18:52:44.553Z,100595.51
2018-04-17T18:55:23.432Z,100598.95
2018-04-17T18:58:04.675Z,100604.41
2018-04-17T19:00:44.282Z,100610.31
2018-04-17T19:03:22.064Z,100615.61
2018-04-17T19:06:05.210Z,100615.12
2018-04-17T19:08:45.342Z,100618.05
2018-04-17T19:11:25.656Z,100620.03
2018-04-17T19:14:04.722Z,100628.20
2018-04-17T19:16:42.849Z,100624.16
2018-04-17T19:19:20.854Z,100627.62
2018-04-17T19:22:01.809Z,100635.98
2018-04-17T19:24:40.673Z,100639.92
2018-04-17T19:27:18.732Z,100645.62
2018-04-17T19:30:01.359Z,100644.96
2018-04-17T19:32:40.711Z,100650.35
2018-04-17T19:35:20.230Z,100650.89
2018-04-17T19:37:59.342Z,100655.05
2018-04-17T19:40:37.913Z,100652.13
2018-04-17T19:43:17.569Z,100656.94
2018-04-17T19:45:56.045Z,100658.70
2018-04-17T19:48:37.041Z,100663.82
2018-04-17T19:51:14.840Z,100664.54
2018-04-17T19:53:55.843Z,100668.16
2018-04-17T19:56:34.600Z,100668.20
2018-04-17T19:59:13.628Z,100670.81
2018-04-17T20:01:54.533Z,100667.05
2018-04-17T20:04:33.703Z,100668.48
2018-04-17T20:07:12.480Z,100672.34
2018-04-17T20:09:52.069Z,100674.31
2018-04-17T20:12:31.315Z,100676.97
2018-04-17T20:15:09.823Z,100675.80
2018-04-17T20:17:48.923Z,100677.05
2018-04-17T20:20:26.800Z,100680.23
2018-04-17T20:23:05.861Z,100678.84
2018-04-17T20:25:44.773Z,100674.77
2018-04-17T20:28:23.272Z,100679.25
2018-04-17T20:31:02.593Z,100682.23
2018-04-17T20:33:41.811Z,100683.22
2018-04-17T20:36:20.261Z,100676.75
2018-04-17T20:38:59.278Z,100676.53
2018-04-17T20:41:39.812Z,100674.84
2018-04-17T20:44:18.210Z,100688.37
2018-04-17T20:46:56.162Z,100685.58
2018-04-17T20:49:36.427Z,100689.31
2018-04-17T20:52:15.300Z,100687.05
2018-04-17T20:54:54.331Z,100696.73
2018-04-17T20:57:34.736Z,100694.94
2018-04-17T21:00:15.106Z,100701.57
2018-04-17T21:02:54.323Z,100694.72
2018-04-17T21:05:33.090Z,100691.61
2018-04-17T21:08:12.427Z,100688.28
2018-04-17T21:10:51.276Z,100692.86
2018-04-17T21:13:29.874Z,100689.47
2018-04-17T21:16:08.307Z,100693.48
2018-04-17T21:18:46.440Z,100691.80
2018-04-17T21:21:26.602Z,100699.44
2018-04-17T21:24:04.893Z,100702.45
2018-04-17T21:26:43.115Z,100710.08
2018-04-17T21:29:22.921Z,100711.52
2018-04-17T21:32:00.854Z,100709.23
2018-04-17T21:34:39.282Z,100715.56
2018-04-17T21:37:17.801Z,100720.09
2018-04-17T21:39:56.234Z,100725.77
2018-04-17T21:42:34.542Z,100736.83
2018-04-17T21:45:14.351Z,100737.98
2018-04-17T21:47:53.858Z,100739.59
2018-04-17T21:50:32.903Z,100736.88
2018-04-17T21:53:11.526Z,100734.34
2018-04-17T21:55:50.323Z,100738.83
2018-04-17T21:58:28.506Z,100744.17
2018-04-17T22:01:11.926Z,100743.34
2018-04-17T22:03:50.759Z,100751.86
2018-04-17T22:06:29.779Z,100743.55
2018-04-17T22:09:12.597Z,100745.92
2018-04-17T22:11:51.735Z,100752.95
2018-04-17T22:14:30.777Z,100757.36
2018-04-17T22:17:12.522Z,100757.37
2018-04-17T22:19:51.465Z,100753.00
2018-04-17T22:22:29.345Z,100751.09
2018-04-17T22:25:13.573Z,100758.31
2018-04-17T22:27:51.608Z,100754.88
2018-04-17T22:30:29.788Z,100766.59
2018-04-17T22:33:14.584Z,100759.25
2018-04-17T22:35:53.466Z,100763.38
2018-04-17T22:38:32.428Z,100767.41
2018-04-17T22:41:14.262Z,100770.05
2018-04-17T22:43:52.791Z,100770.34
2018-04-17T22:46:32.908Z,100773.75
2018-04-17T22:49:12.396Z,100770.83
2018-04-17T22:51:51.067Z,100774.70
2018-04-17T22:54:31.786Z,100780.30
2018-04-17T22:57:11.543Z,100778.49
2018-04-17T22:59:50.693Z,100774.88
2018-04-17T23:02:29.893Z,100778.47
2018-04-17T23:05:08.609Z,100780.05
2018-04-17T23:07:48.781Z,100788.16
2018-04-17T23:10:30.246Z,100783.13
2018-04-17T23:13:09.205Z,116041.53
2018-04-17T23:15:48.804Z,116041.53
2018-04-17T23:18:27.656Z,116041.53
2018-04-17T23:21:11.524Z,116041.53
2018-04-17T23:23:50.328Z,116041.53
2018-04-17T23:26:37.074Z,116041.53
2018-04-17T23:29:16.786Z,116041.53
2018-04-17T23:31:56.011Z,116041.53
2018-04-17T23:34:37.228Z,116041.53
2018-04-17T23:37:16.787Z,116041.53
2018-04-17T23:40:00.344Z,116041.53
2018-04-17T23:42:39.366Z,116041.53
2018-04-17T23:45:17.634Z,116041.53
2018-04-17T23:47:56.327Z,116041.53
2018-04-17T23:50:35.220Z,116041.53
2018-04-17T23:53:14.669Z,116041.53
2018-04-17T23:55:53.029Z,100821.05
2018-04-17T23:58:32.360Z,100823.76
